createdAt,value
2017-07-22T00:00:20.226Z,99.90
2017-07-22T00:02:47.705Z,99.90
2017-07-22T00:05:15.194Z,99.90
2017-07-22T00:07:43.434Z,99.90
2017-07-22T00:10:10.947Z,99.90
2017-07-22T00:12:38.426Z,99.90
2017-07-22T00:15:05.921Z,99.90
2017-07-22T00:17:33.403Z,99.90
2017-07-22T00:20:01.658Z,99.90
2017-07-22T00:22:29.138Z,99.90
2017-07-22T00:24:56.623Z,99.90
2017-07-22T00:27:24.098Z,99.90
2017-07-22T00:29:51.589Z,99.90
2017-07-22T00:34:58.489Z,99.90
2017-07-22T00:37:25.961Z,99.90
2017-07-22T00:39:53.447Z,99.90
2017-07-22T00:42:21.702Z,99.90
2017-07-22T00:44:49.210Z,99.90
2017-07-22T00:47:16.701Z,99.90
2017-07-22T00:49:44.200Z,99.90
2017-07-22T00:52:12.091Z,99.90
2017-07-22T00:54:39.590Z,99.90
2017-07-22T00:57:07.079Z,99.90
2017-07-22T00:59:34.591Z,99.90
2017-07-22T01:02:02.058Z,99.90
2017-07-22T01:04:30.306Z,99.90
2017-07-22T01:06:57.820Z,99.90
2017-07-22T01:09:25.315Z,99.90
2017-07-22T01:11:53.572Z,99.90
2017-07-22T01:14:21.054Z,99.90
2017-07-22T01:16:48.547Z,99.90
2017-07-22T01:19:16.014Z,99.90
2017-07-22T01:21:43.516Z,99.90
2017-07-22T01:24:11.765Z,99.90
2017-07-22T01:26:39.270Z,99.90
2017-07-22T01:29:06.757Z,99.90
2017-07-22T01:31:35.010Z,99.90
2017-07-22T01:34:02.500Z,99.90
2017-07-22T01:36:29.995Z,99.90
2017-07-22T01:38:58.242Z,99.90
2017-07-22T01:41:25.742Z,99.90
2017-07-22T01:43:53.230Z,99.90
2017-07-22T01:46:20.748Z,99.90
2017-07-22T01:48:48.237Z,99.90
2017-07-22T01:51:15.710Z,99.90
2017-07-22T01:53:43.207Z,99.90
2017-07-22T01:56:10.690Z,99.90
2017-07-22T01:58:38.183Z,99.90
2017-07-22T02:01:05.670Z,99.90
2017-07-22T02:03:33.926Z,99.90
2017-07-22T02:06:01.406Z,99.90
2017-07-22T02:08:28.913Z,99.90
2017-07-22T02:10:56.389Z,99.90
2017-07-22T02:13:23.885Z,99.90
2017-07-22T02:15:51.361Z,99.90
2017-07-22T02:18:18.853Z,99.90
2017-07-22T02:20:46.344Z,99.90
2017-07-22T02:23:13.830Z,99.90
2017-07-22T02:25:41.302Z,99.90
2017-07-22T02:28:08.798Z,99.90
2017-07-22T02:30:36.269Z,99.90
2017-07-22T02:33:03.764Z,99.90
2017-07-22T02:35:31.250Z,99.90
2017-07-22T02:37:59.533Z,99.90
2017-07-22T02:40:27.017Z,99.90
2017-07-22T02:42:54.490Z,99.90
2017-07-22T02:45:21.998Z,99.90
2017-07-22T02:47:49.495Z,99.90
2017-07-22T02:50:16.994Z,99.90
2017-07-22T02:52:44.479Z,99.90
2017-07-22T02:55:11.995Z,99.90
2017-07-22T02:57:39.480Z,99.90
2017-07-22T03:00:06.998Z,99.90
2017-07-22T03:02:34.473Z,99.90
2017-07-22T03:05:01.961Z,99.90
2017-07-22T03:07:30.196Z,99.90
2017-07-22T03:09:57.686Z,99.90
2017-07-22T03:12:25.161Z,99.90
2017-07-22T03:14:52.664Z,99.90
2017-07-22T03:17:20.150Z,99.90
2017-07-22T03:19:47.646Z,99.90
2017-07-22T03:22:15.882Z,99.90
2017-07-22T03:24:43.384Z,99.90
2017-07-22T03:27:10.869Z,99.90
2017-07-22T03:29:38.367Z,99.90
2017-07-22T03:32:05.863Z,99.90
2017-07-22T03:34:33.379Z,99.90
2017-07-22T03:37:00.848Z,99.90
2017-07-22T03:39:28.322Z,99.90
2017-07-22T03:41:55.814Z,99.90
2017-07-22T03:44:23.292Z,99.90
2017-07-22T03:46:50.791Z,99.90
2017-07-22T03:49:19.038Z,99.90
2017-07-22T03:51:46.535Z,99.90
2017-07-22T03:54:14.011Z,99.90
2017-07-22T03:56:41.502Z,99.90
2017-07-22T03:59:09.743Z,99.90
2017-07-22T04:01:37.238Z,99.90
2017-07-22T04:04:04.721Z,99.90
2017-07-22T04:06:32.210Z,99.90
2017-07-22T04:08:59.682Z,99.90
2017-07-22T04:11:27.171Z,99.90
2017-07-22T04:13:54.658Z,99.90
2017-07-22T04:16:22.907Z,99.90
2017-07-22T04:18:50.395Z,99.90
2017-07-22T04:21:17.897Z,99.90
2017-07-22T04:23:45.371Z,99.90
2017-07-22T04:26:13.294Z,99.60
2017-07-22T04:28:40.777Z,99.90
2017-07-22T04:31:08.250Z,99.90
2017-07-22T04:33:35.763Z,99.90
2017-07-22T04:36:03.237Z,99.90
2017-07-22T04:38:30.733Z,99.80
2017-07-22T04:40:58.209Z,99.70
2017-07-22T04:43:25.704Z,99.90
2017-07-22T04:45:53.176Z,99.70
2017-07-22T04:48:20.688Z,99.90
2017-07-22T04:50:48.162Z,99.90
2017-07-22T04:53:15.658Z,99.90
2017-07-22T04:55:43.138Z,99.90
2017-07-22T04:58:10.628Z,99.90
2017-07-22T05:00:38.114Z,99.90
2017-07-22T05:03:05.607Z,99.90
2017-07-22T05:05:33.073Z,99.70
2017-07-22T05:08:00.584Z,99.60
2017-07-22T05:10:28.059Z,99.50
2017-07-22T05:12:55.566Z,98.80
2017-07-22T05:15:23.054Z,98.90
2017-07-22T05:17:50.526Z,98.80
2017-07-22T05:20:18.028Z,98.00
2017-07-22T05:22:45.514Z,97.70
2017-07-22T05:25:13.010Z,97.30
2017-07-22T05:27:40.502Z,97.50
2017-07-22T05:30:07.995Z,97.50
2017-07-22T05:32:35.484Z,96.80
2017-07-22T05:35:02.985Z,95.70
2017-07-22T05:37:31.237Z,96.30
2017-07-22T05:39:58.770Z,96.30
2017-07-22T05:42:26.242Z,96.70
2017-07-22T05:44:53.743Z,96.50
2017-07-22T05:47:21.244Z,96.50
2017-07-22T05:49:48.735Z,96.60
2017-07-22T05:52:16.993Z,97.30
2017-07-22T05:54:44.488Z,97.20
2017-07-22T05:57:11.967Z,97.60
2017-07-22T05:59:39.469Z,97.90
2017-07-22T06:02:07.718Z,97.60
2017-07-22T06:04:35.232Z,97.60
2017-07-22T06:07:03.482Z,97.70
2017-07-22T06:09:30.963Z,97.60
2017-07-22T06:11:58.459Z,97.90
2017-07-22T06:14:25.946Z,98.20
2017-07-22T06:16:53.447Z,98.30
2017-07-22T06:19:20.926Z,98.30
2017-07-22T06:21:48.434Z,97.80
2017-07-22T06:24:15.919Z,98.20
2017-07-22T06:26:43.417Z,98.70
2017-07-22T06:29:10.902Z,98.60
2017-07-22T06:31:38.401Z,98.80
2017-07-22T06:34:05.890Z,98.10
2017-07-22T06:36:33.405Z,98.20
2017-07-22T06:39:00.882Z,98.50
2017-07-22T06:41:28.394Z,98.40
2017-07-22T06:43:55.882Z,98.30
2017-07-22T06:46:23.390Z,97.80
2017-07-22T06:48:50.865Z,98.00
2017-07-22T06:51:18.366Z,97.90
2017-07-22T06:53:45.856Z,97.60
2017-07-22T06:56:13.383Z,96.30
2017-07-22T06:58:40.882Z,95.90
2017-07-22T07:01:08.362Z,94.70
2017-07-22T07:03:35.870Z,94.70
2017-07-22T07:06:04.424Z,94.90
2017-07-22T07:08:31.946Z,94.90
2017-07-22T07:11:00.190Z,94.70
2017-07-22T07:13:27.690Z,94.70
2017-07-22T07:15:55.203Z,94.20
2017-07-22T07:18:22.717Z,94.40
2017-07-22T07:20:50.213Z,94.20
2017-07-22T07:23:17.709Z,93.60
2017-07-22T07:25:45.967Z,94.00
2017-07-22T07:28:13.475Z,93.80
2017-07-22T07:30:40.962Z,93.80
2017-07-22T07:33:08.452Z,93.40
2017-07-22T07:35:35.933Z,93.90
2017-07-22T07:38:03.434Z,93.70
2017-07-22T07:40:30.915Z,91.40
2017-07-22T07:42:58.422Z,90.00
2017-07-22T07:45:25.946Z,90.10
2017-07-22T07:47:53.459Z,90.00
2017-07-22T07:50:20.949Z,90.70
2017-07-22T07:52:48.473Z,89.80
2017-07-22T07:55:15.975Z,90.10
2017-07-22T07:57:43.456Z,90.10
2017-07-22T08:00:10.962Z,90.40
2017-07-22T08:02:38.434Z,90.60
2017-07-22T08:05:06.692Z,91.80
2017-07-22T08:07:34.168Z,91.80
2017-07-22T08:10:01.680Z,91.90
2017-07-22T08:12:29.205Z,91.30
2017-07-22T08:14:56.699Z,91.40
2017-07-22T08:17:24.189Z,91.70
2017-07-22T08:19:51.689Z,90.10
2017-07-22T08:22:19.923Z,76.30
2017-07-22T08:24:47.426Z,77.10
2017-07-22T08:27:14.901Z,69.70
2017-07-22T08:29:42.408Z,70.30
2017-07-22T08:32:09.898Z,65.20
2017-07-22T08:34:37.398Z,60.00
2017-07-22T08:37:04.871Z,56.70
2017-07-22T08:39:32.368Z,54.40
2017-07-22T08:41:59.833Z,55.10
2017-07-22T08:44:27.329Z,53.60
2017-07-22T08:46:54.807Z,52.90
2017-07-22T08:49:22.290Z,50.20
2017-07-22T08:51:49.776Z,51.50
2017-07-22T08:54:18.031Z,49.50
2017-07-22T08:56:45.519Z,48.90
2017-07-22T08:59:12.992Z,46.20
2017-07-22T09:01:40.494Z,45.70
2017-07-22T09:04:07.993Z,47.90
2017-07-22T09:06:35.483Z,49.40
2017-07-22T09:09:02.970Z,52.30
2017-07-22T09:11:30.459Z,54.60
2017-07-22T09:13:57.935Z,57.60
2017-07-22T09:16:25.426Z,59.20
2017-07-22T09:18:52.901Z,59.70
2017-07-22T09:21:20.394Z,60.00
2017-07-22T09:23:47.914Z,60.30
2017-07-22T09:26:15.403Z,60.60
2017-07-22T09:28:42.883Z,62.20
2017-07-22T09:31:10.386Z,60.80
2017-07-22T09:33:37.849Z,59.30
2017-07-22T09:36:05.365Z,58.00
2017-07-22T09:38:33.603Z,61.90
2017-07-22T09:41:01.083Z,61.90
2017-07-22T09:43:28.566Z,64.00
2017-07-22T09:45:56.047Z,61.30
2017-07-22T09:48:23.628Z,57.10
2017-07-22T09:50:51.106Z,53.20
2017-07-22T09:53:18.591Z,50.70
2017-07-22T09:55:46.070Z,48.50
2017-07-22T09:58:13.565Z,48.90
2017-07-22T10:00:41.815Z,44.90
2017-07-22T10:03:09.308Z,44.80
2017-07-22T10:05:36.783Z,44.30
2017-07-22T10:08:04.269Z,43.50
2017-07-22T10:10:32.514Z,44.70
2017-07-22T10:13:00.021Z,45.00
2017-07-22T10:15:27.498Z,44.50
2017-07-22T10:17:54.994Z,44.10
2017-07-22T10:20:23.223Z,42.70
2017-07-22T10:22:50.719Z,42.70
2017-07-22T10:25:18.189Z,46.80
2017-07-22T10:27:45.697Z,47.80
2017-07-22T10:30:13.169Z,47.00
2017-07-22T10:32:40.638Z,47.00
2017-07-22T10:35:08.130Z,49.70
2017-07-22T10:37:35.603Z,50.40
2017-07-22T10:40:03.086Z,51.70
2017-07-22T10:42:31.322Z,55.10
2017-07-22T10:44:58.814Z,55.20
2017-07-22T10:47:26.303Z,55.00
2017-07-22T10:49:53.793Z,55.60
2017-07-22T10:52:21.259Z,57.30
2017-07-22T10:54:48.749Z,58.30
2017-07-22T10:57:16.219Z,58.80
2017-07-22T10:59:43.710Z,59.20
2017-07-22T11:02:11.964Z,62.20
2017-07-22T11:04:39.454Z,62.10
2017-07-22T11:07:06.930Z,62.00
2017-07-22T11:09:34.391Z,61.20
2017-07-22T11:12:01.881Z,60.00
2017-07-22T11:14:29.355Z,61.20
2017-07-22T11:16:56.850Z,62.30
2017-07-22T11:19:24.323Z,63.20
2017-07-22T11:21:51.821Z,63.90
2017-07-22T11:24:20.063Z,64.40
2017-07-22T11:26:47.551Z,64.30
2017-07-22T11:29:15.022Z,65.00
2017-07-22T11:31:42.526Z,63.90
2017-07-22T11:34:10.766Z,64.70
2017-07-22T11:36:38.255Z,64.70
2017-07-22T11:39:05.727Z,66.20
2017-07-22T11:41:33.222Z,66.30
2017-07-22T11:44:00.699Z,67.10
2017-07-22T11:46:28.185Z,67.80
2017-07-22T11:48:55.650Z,69.20
2017-07-22T11:51:23.127Z,69.10
2017-07-22T11:53:50.627Z,70.30
2017-07-22T11:56:18.862Z,73.60
2017-07-22T11:58:46.355Z,73.50
2017-07-22T12:01:13.830Z,77.00
2017-07-22T12:03:41.310Z,80.50
2017-07-22T12:06:08.778Z,81.50
2017-07-22T12:08:36.271Z,83.00
2017-07-22T12:11:03.741Z,85.40
2017-07-22T12:13:31.230Z,86.30
2017-07-22T12:15:58.703Z,88.60
2017-07-22T12:18:26.201Z,87.40
2017-07-22T12:20:54.451Z,87.80
2017-07-22T12:23:21.953Z,87.80
2017-07-22T12:25:49.425Z,89.40
2017-07-22T12:28:16.913Z,89.20
2017-07-22T12:30:45.159Z,86.90
2017-07-22T12:33:12.670Z,86.80
2017-07-22T12:35:40.133Z,84.00
2017-07-22T12:38:07.612Z,80.10
2017-07-22T12:40:35.104Z,77.30
2017-07-22T12:43:02.582Z,69.80
2017-07-22T12:45:30.070Z,66.90
2017-07-22T12:47:58.314Z,65.00
2017-07-22T12:50:25.789Z,65.00
2017-07-22T12:52:53.270Z,61.90
2017-07-22T12:55:20.762Z,58.10
2017-07-22T12:57:48.240Z,57.20
2017-07-22T13:00:15.718Z,55.90
2017-07-22T13:02:43.246Z,53.80
2017-07-22T13:05:10.726Z,55.00
2017-07-22T13:07:38.194Z,55.10
2017-07-22T13:10:05.682Z,52.90
2017-07-22T13:12:33.153Z,52.40
2017-07-22T13:15:00.618Z,51.40
2017-07-22T13:17:28.102Z,52.90
2017-07-22T13:19:55.574Z,52.80
2017-07-22T13:22:23.066Z,52.60
2017-07-22T13:24:50.557Z,53.10
2017-07-22T13:27:18.044Z,53.50
2017-07-22T13:29:46.294Z,52.00
2017-07-22T13:32:13.799Z,52.00
2017-07-22T13:34:41.260Z,51.40
2017-07-22T13:37:08.744Z,52.70
2017-07-22T13:39:36.222Z,53.60
2017-07-22T13:42:03.716Z,55.30
2017-07-22T13:44:31.186Z,56.30
2017-07-22T13:46:58.685Z,57.50
2017-07-22T13:49:26.927Z,62.00
2017-07-22T13:51:54.423Z,62.10
2017-07-22T13:54:21.943Z,63.30
2017-07-22T13:56:49.435Z,63.80
2017-07-22T13:59:16.919Z,63.90
2017-07-22T14:01:44.394Z,62.60
2017-07-22T14:04:11.890Z,64.00
2017-07-22T14:06:39.354Z,65.00
2017-07-22T14:11:40.682Z,66.70
2017-07-22T14:14:08.170Z,69.20
2017-07-22T14:16:36.409Z,74.90
2017-07-22T14:19:03.905Z,74.70
2017-07-22T14:21:31.371Z,78.40
2017-07-22T14:23:58.858Z,79.20
2017-07-22T14:26:26.335Z,79.40
2017-07-22T14:28:53.834Z,79.20
2017-07-22T14:31:21.341Z,78.80
2017-07-22T14:33:48.834Z,76.90
2017-07-22T14:36:16.302Z,73.40
2017-07-22T14:38:43.795Z,73.80
2017-07-22T14:41:11.261Z,70.50
2017-07-22T14:43:38.758Z,70.70
2017-07-22T14:46:06.234Z,72.00
2017-07-22T14:48:33.731Z,68.40
2017-07-22T14:51:01.195Z,67.40
2017-07-22T14:53:28.702Z,64.70
2017-07-22T14:55:57.014Z,58.20
2017-07-22T14:58:24.497Z,58.30
2017-07-22T15:00:51.994Z,59.00
2017-07-22T15:03:19.502Z,55.70
2017-07-22T15:05:46.996Z,55.60
2017-07-22T15:08:15.223Z,56.90
2017-07-22T15:10:42.712Z,56.90
2017-07-22T15:13:10.195Z,55.30
2017-07-22T15:15:37.686Z,55.30
2017-07-22T15:18:05.162Z,54.60
2017-07-22T15:20:32.641Z,55.30
2017-07-22T15:23:00.118Z,56.60
2017-07-22T15:25:27.621Z,55.10
2017-07-22T15:27:55.873Z,55.40
2017-07-22T15:30:23.370Z,55.40
2017-07-22T15:32:50.837Z,55.70
2017-07-22T15:35:18.323Z,54.50
2017-07-22T15:37:45.786Z,57.40
2017-07-22T15:40:13.280Z,57.50
2017-07-22T15:42:41.518Z,57.80
2017-07-22T15:45:09.027Z,57.70
2017-07-22T15:47:36.555Z,58.00
2017-07-22T15:50:04.055Z,58.10
2017-07-22T15:52:31.546Z,59.00
2017-07-22T15:54:59.052Z,59.70
2017-07-22T15:57:26.543Z,59.60
2017-07-22T15:59:54.077Z,59.70
2017-07-22T16:02:21.563Z,59.80
2017-07-22T16:04:49.059Z,59.90
2017-07-22T16:07:16.576Z,59.80
2017-07-22T16:09:44.082Z,61.00
2017-07-22T16:12:11.588Z,60.40
2017-07-22T16:14:39.085Z,60.70
2017-07-22T16:17:06.599Z,60.40
2017-07-22T16:19:34.088Z,60.50
2017-07-22T16:22:01.599Z,61.20
2017-07-22T16:24:29.091Z,62.50
2017-07-22T16:26:56.590Z,63.20
2017-07-22T16:29:24.092Z,63.40
2017-07-22T16:31:51.600Z,63.10
2017-07-22T16:34:19.086Z,62.60
2017-07-22T16:36:46.602Z,60.40
2017-07-22T16:39:14.094Z,61.50
2017-07-22T16:41:41.576Z,62.90
2017-07-22T16:44:09.095Z,63.40
2017-07-22T16:46:36.609Z,61.70
2017-07-22T16:49:04.103Z,61.70
2017-07-22T16:51:31.575Z,61.00
2017-07-22T16:53:59.054Z,61.10
2017-07-22T16:56:26.543Z,61.80
2017-07-22T16:58:54.022Z,60.90
2017-07-22T17:01:21.490Z,62.70
2017-07-22T17:03:48.969Z,63.00
2017-07-22T17:06:16.433Z,62.80
2017-07-22T17:08:43.931Z,63.60
2017-07-22T17:11:12.174Z,64.80
2017-07-22T17:13:39.663Z,63.90
2017-07-22T17:16:07.135Z,63.60
2017-07-22T17:18:34.625Z,63.00
2017-07-22T17:21:02.098Z,62.90
2017-07-22T17:23:29.575Z,62.10
2017-07-22T17:25:57.054Z,61.80
2017-07-22T17:28:24.531Z,59.50
2017-07-22T17:30:52.026Z,60.00
2017-07-22T17:33:20.264Z,59.30
2017-07-22T17:35:47.749Z,59.30
2017-07-22T17:38:15.221Z,63.90
2017-07-22T17:40:42.717Z,67.20
2017-07-22T17:43:10.215Z,73.00
2017-07-22T17:45:38.472Z,80.80
2017-07-22T17:48:05.950Z,79.80
2017-07-22T17:50:33.446Z,85.20
2017-07-22T17:53:00.926Z,88.60
2017-07-22T17:55:28.413Z,88.00
2017-07-22T17:57:56.658Z,90.40
2017-07-22T18:00:24.162Z,90.40
2017-07-22T18:02:51.654Z,89.70
2017-07-22T18:05:19.253Z,85.60
2017-07-22T18:07:46.735Z,88.60
2017-07-22T18:10:14.226Z,86.00
2017-07-22T18:12:41.726Z,85.60
2017-07-22T18:15:09.211Z,88.40
2017-07-22T18:17:36.715Z,89.00
2017-07-22T18:20:04.210Z,88.80
2017-07-22T18:22:31.716Z,87.70
2017-07-22T18:24:59.210Z,87.70
2017-07-22T18:27:26.698Z,84.20
2017-07-22T18:29:54.191Z,86.80
2017-07-22T18:32:21.765Z,90.60
2017-07-22T18:34:49.259Z,91.80
2017-07-22T18:37:16.772Z,92.30
2017-07-22T18:39:44.255Z,91.50
2017-07-22T18:42:11.762Z,91.60
2017-07-22T18:44:39.258Z,92.30
2017-07-22T18:47:07.539Z,92.70
2017-07-22T18:49:35.779Z,91.90
2017-07-22T18:52:03.250Z,91.60
2017-07-22T18:54:30.808Z,91.10
2017-07-22T18:56:58.281Z,91.80
2017-07-22T18:59:25.762Z,91.20
2017-07-22T19:01:53.235Z,91.40
2017-07-22T19:04:20.723Z,91.70
2017-07-22T19:06:48.210Z,91.70
2017-07-22T19:09:15.694Z,91.60
2017-07-22T19:11:43.158Z,91.40
2017-07-22T19:14:10.649Z,91.10
2017-07-22T19:16:38.123Z,91.30
2017-07-22T19:19:05.618Z,91.50
2017-07-22T19:21:33.088Z,90.50
2017-07-22T19:24:00.581Z,90.20
2017-07-22T19:26:28.059Z,86.60
2017-07-22T19:28:55.564Z,82.20
2017-07-22T19:31:23.031Z,82.10
2017-07-22T19:33:50.527Z,85.90
2017-07-22T19:36:17.989Z,88.30
2017-07-22T19:38:45.487Z,88.40
2017-07-22T19:41:12.962Z,87.70
2017-07-22T19:43:40.442Z,88.10
2017-07-22T19:46:07.930Z,89.70
2017-07-22T19:48:35.419Z,89.90
2017-07-22T19:51:02.894Z,88.10
2017-07-22T19:53:30.382Z,89.60
2017-07-22T19:55:57.847Z,90.00
2017-07-22T19:58:25.347Z,89.80
2017-07-22T20:00:53.582Z,90.20
2017-07-22T20:03:21.054Z,90.10
2017-07-22T20:05:48.554Z,90.50
2017-07-22T20:08:16.017Z,90.40
2017-07-22T20:10:43.513Z,90.60
2017-07-22T20:13:10.982Z,91.00
2017-07-22T20:15:38.487Z,91.40
2017-07-22T20:18:05.959Z,91.30
2017-07-22T20:20:33.445Z,91.50
2017-07-22T20:23:01.699Z,92.00
2017-07-22T20:25:29.191Z,92.00
2017-07-22T20:27:56.671Z,92.20
2017-07-22T20:30:24.168Z,92.50
2017-07-22T20:32:52.419Z,92.80
2017-07-22T20:35:19.922Z,92.80
2017-07-22T20:37:47.392Z,93.10
2017-07-22T20:40:14.874Z,93.30
2017-07-22T20:42:42.362Z,93.50
2017-07-22T20:45:10.602Z,93.70
2017-07-22T20:47:38.100Z,93.70
2017-07-22T20:50:05.592Z,93.70
2017-07-22T20:52:33.082Z,93.60
2017-07-22T20:55:01.332Z,93.70
2017-07-22T20:57:28.823Z,93.70
2017-07-22T20:59:56.315Z,93.80
2017-07-22T21:02:23.803Z,93.70
2017-07-22T21:04:52.048Z,93.80
2017-07-22T21:07:19.542Z,93.80
2017-07-22T21:09:47.054Z,94.00
2017-07-22T21:12:15.315Z,94.80
2017-07-22T21:14:43.585Z,94.90
2017-07-22T21:17:11.079Z,94.80
2017-07-22T21:19:38.553Z,95.20
2017-07-22T21:22:06.042Z,94.60
2017-07-22T21:24:33.522Z,94.70
2017-07-22T21:27:01.033Z,94.90
2017-07-22T21:29:28.526Z,95.00
2017-07-22T21:31:55.998Z,94.80
2017-07-22T21:34:23.559Z,94.90
2017-07-22T21:36:51.037Z,95.10
2017-07-22T21:39:18.525Z,95.10
2017-07-22T21:41:46.002Z,95.30
2017-07-22T21:44:13.494Z,95.20
2017-07-22T21:46:41.030Z,95.30
2017-07-22T21:49:08.528Z,95.70
2017-07-22T21:51:36.002Z,95.60
2017-07-22T21:54:03.511Z,95.30
2017-07-22T21:56:30.995Z,95.10
2017-07-22T21:58:58.508Z,95.00
2017-07-22T22:01:25.979Z,95.20
2017-07-22T22:03:53.485Z,95.40
2017-07-22T22:06:20.972Z,95.10
2017-07-22T22:08:48.462Z,95.00
2017-07-22T22:11:15.948Z,95.00
2017-07-22T22:13:43.438Z,95.20
2017-07-22T22:16:11.684Z,95.70
2017-07-22T22:18:39.178Z,95.50
2017-07-22T22:21:06.651Z,95.50
2017-07-22T22:23:34.123Z,95.20
2017-07-22T22:26:01.633Z,95.40
2017-07-22T22:28:29.113Z,95.20
2017-07-22T22:30:57.387Z,95.10
2017-07-22T22:33:24.870Z,95.10
2017-07-22T22:35:52.365Z,95.00
2017-07-22T22:38:20.598Z,95.70
2017-07-22T22:40:48.095Z,95.60
2017-07-22T22:43:15.577Z,95.80
2017-07-22T22:45:43.062Z,95.60
2017-07-22T22:48:10.546Z,95.50
2017-07-22T22:50:38.068Z,95.90
2017-07-22T22:53:05.558Z,95.80
2017-07-22T22:55:33.055Z,95.80
2017-07-22T22:58:00.531Z,96.50
2017-07-22T23:00:28.022Z,94.70
2017-07-22T23:02:55.493Z,95.50
2017-07-22T23:05:22.987Z,96.20
2017-07-22T23:07:50.474Z,97.40
2017-07-22T23:10:17.954Z,98.60
2017-07-22T23:12:45.443Z,98.80
2017-07-22T23:15:12.929Z,99.10
2017-07-22T23:17:40.422Z,99.30
2017-07-22T23:20:07.890Z,99.60
2017-07-22T23:22:35.391Z,99.40
2017-07-22T23:25:03.650Z,99.90
2017-07-22T23:27:31.138Z,99.90
2017-07-22T23:29:58.617Z,99.90
2017-07-22T23:32:26.107Z,99.90
2017-07-22T23:34:53.610Z,99.90
2017-07-22T23:37:21.102Z,99.90
2017-07-22T23:39:48.592Z,99.90
2017-07-22T23:42:16.087Z,99.90
2017-07-22T23:44:43.570Z,99.90
2017-07-22T23:47:11.050Z,99.90
2017-07-22T23:49:38.538Z,99.90
2017-07-22T23:52:06.015Z,99.90
2017-07-22T23:54:33.506Z,99.90
2017-07-22T23:57:00.978Z,99.90
2017-07-22T23:59:28.466Z,99.90
